Airfield :
LOGIN :

Register | Disclaimer

   EN    FR    IT 

 










Legend :    VFR   Marginal VFR   IFR   Intensive IFR   Very Intensive IFR
Visi :
Ceiling :
>= 8 km
>= 3000ft
5 to 8 km
1000 to 3000 ft
1500m to 5 km
500 to 1000 ft
800 to 1500m
200 to 500 ft
< 800m
< 200 ft
Symbols :   Thunderstorms  Fog  Heavy snow  Heavy precipitations  Wind > 20 kt
SIGMETs :     Misc.  Thunderstorms  Icing  Turbulence  Mountain Waves  Volcanic Ashes







- Airport Elevation : 26 ft
- IATA code : BIA
- Download approach charts


LFKB - Bastia

CURRENT METAR :
  • 222000Z AUTO 19005KT CAVOK 23/18 Q1011 BECMG TS

EXPIRED METARs :
  • 221930Z AUTO VRB03KT CAVOK 23/18 Q1011 BECMG TS
  • 221900Z AUTO 35006KT 9999 -RA FEW086 BKN120 OVC160 25/19 Q1011 BECMG 14010KT TS
  • 221830Z AUTO 34005KT 300V030 9999 FEW058 BKN120 OVC140 24/17 Q1011 BECMG 14010KT TS
  • 221800Z AUTO 12004KT 9999 ///CB 24/17 Q1011 BECMG TS FEW026 SCT100 BKN230
  • 221730Z AUTO 13007KT 9999 TS FEW043/// BKN120/// BKN160/// ///CB 24/17 Q1011 BECMG FEW026 SCT100 BKN230

TAF AMD TAF LFKB
Valid from the 22 at 15:00 until the 23 at 15:00 UTC


221508Z 2215/2315 14010KT 9999 TS FEW026CB TX29/2212Z TN21/2300Z
BECMG 2218/2220 FEW026 SCT100 BKN230
TEMPO 2300/2306 SHRA SCT026TCU BKN100
PROB40
TEMPO 2300/2306 TSRA FEW026CB
ATIS : +33 4 95 59 19 40
No reported NOTAMs for that airfield.
1 SIGMET reported for the Marseille FIR (LFMM) :
 
Embedded thunderstorms
LFMM SIGMET 4 VALID 222000/222100 LFPW
LFMM MARSEILLE FIR/UIR EMBD TS OBS AT 2000Z WI N4315 E00715 - N4245 E00715 - N4300 E00545 - N4330 E00545 - N4315 E00715 TOP FL350 STNR WKN=



MET'MAP, your aeronautical weather chart ! - Copyright ORBIFLY December 2007 - Disclaimer

ORBIFLY MET'MAP TEAM :

Programming & Development : Alexandra Zaïnal
Concept & Development : Baudouin d'Aumeries
Co-Development & Prog : Marc-Olivier Méhu
Technical & hardware support : Manuel Goepfert

Contact : metmap@orbifly.com




SOURCES & CREDITS :

   NOAA